Time;durP1;ratioP1;P1;durP2;ratioP2;P2;SDS_P1;SDS_P2;PMS_P1;PMS_P2;Temp;Humidity;BMP_temperature;BMP_pressure;BME280_temperature;BME280_humidity;BME280_pressure;Samples;Min_cycle;Max_cycle;Signal;HPM_P1;HPM_P2
2021/04/27 00:00:12;;;;;;;5.93;4.4;;;8.7;82.5;;;;;;;;;
2021/04/27 00:01:01;;;;;;;5.93;4.4;;;8.7;82.5;;;;;;;;;
2021/04/27 00:02:01;;;;;;;6.2;3.93;;;8.7;83.2;;;;;;;;;
2021/04/27 00:02:25;;;;;;;5.8;3.87;;;8.6;83.4;;;;;;;;;
2021/04/27 00:03:01;;;;;;;5.8;3.87;;;8.6;83.4;;;;;;;;;
2021/04/27 00:03:16;;;;;;;7.4;4.77;;;8.5;83.9;;;;;;;;;
2021/04/27 00:04:01;;;;;;;7.4;4.77;;;8.5;83.9;;;;;;;;;
2021/04/27 00:04:13;;;;;;;7.4;4.77;;;8.5;83.9;;;;;;;;;
2021/04/27 00:04:38;;;;;;;5.63;4.47;;;8.5;83.7;;;;;;;;;
2021/04/27 00:05:01;;;;;;;5.63;4.47;;;8.5;83.7;;;;;;;;;
2021/04/27 00:05:14;;;;;;;6.73;5.3;;;8.5;83.6;;;;;;;;;
2021/04/27 00:05:29;;;;;;;6.73;5.3;;;8.5;83.6;;;;;;;;;
2021/04/27 00:06:01;;;;;;;6.73;5.3;;;8.5;83.6;;;;;;;;;
2021/04/27 00:06:15;;;;;;;7.8;4.63;;;8.5;84.4;;;;;;;;;
2021/04/27 00:06:26;;;;;;;7.8;4.63;;;8.5;84.4;;;;;;;;;
2021/04/27 00:06:51;;;;;;;7.8;4.63;;;8.5;84.4;;;;;;;;;
2021/04/27 00:07:01;;;;;;;7.8;4.63;;;8.5;84.4;;;;;;;;;
2021/04/27 00:07:13;;;;;;;7.8;4.63;;;8.5;84.4;;;;;;;;;
2021/04/27 00:07:27;;;;;;;5.93;4.57;;;8.6;83.4;;;;;;;;;
2021/04/27 00:07:42;;;;;;;5.93;4.57;;;8.6;83.4;;;;;;;;;
2021/04/27 00:08:01;;;;;;;5.93;4.57;;;8.6;83.4;;;;;;;;;
2021/04/27 00:08:13;;;;;;;5.93;4.57;;;8.6;83.4;;;;;;;;;
2021/04/27 00:08:28;;;;;;;8.03;4.27;;;8.6;83.5;;;;;;;;;
2021/04/27 00:08:40;;;;;;;8.03;4.27;;;8.6;83.5;;;;;;;;;
2021/04/27 00:09:01;;;;;;;8.03;4.27;;;8.6;83.5;;;;;;;;;
2021/04/27 00:09:04;;;;;;;8.03;4.27;;;8.6;83.5;;;;;;;;;
2021/04/27 00:09:15;;;;;;;5;4.3;;;8.6;83.4;;;;;;;;;
2021/04/27 00:09:25;;;;;;;5;4.3;;;8.6;83.4;;;;;;;;;
2021/04/27 00:09:41;;;;;;;5;4.3;;;8.6;83.4;;;;;;;;;
2021/04/27 00:09:55;;;;;;;5;4.3;;;8.6;83.4;;;;;;;;;
2021/04/27 00:10:02;;;;;;;5;4.3;;;8.6;83.4;;;;;;;;;
2021/04/27 00:10:16;;;;;;;7.23;4.77;;;8.6;83.6;;;;;;;;;
2021/04/27 00:10:26;;;;;;;7.23;4.77;;;8.6;83.6;;;;;;;;;
2021/04/27 00:10:42;;;;;;;7.23;4.77;;;8.6;83.6;;;;;;;;;
2021/04/27 00:10:52;;;;;;;7.23;4.77;;;8.6;83.6;;;;;;;;;
2021/04/27 00:11:01;;;;;;;7.23;4.77;;;8.6;83.6;;;;;;;;;
2021/04/27 00:11:18;;;;;;;4.6;4.17;;;8.6;84.2;;;;;;;;;
2021/04/27 00:11:28;;;;;;;4.6;4.17;;;8.6;84.2;;;;;;;;;
2021/04/27 00:11:38;;;;;;;4.6;4.17;;;8.6;84.2;;;;;;;;;
2021/04/27 00:11:53;;;;;;;4.6;4.17;;;8.6;84.2;;;;;;;;;
2021/04/27 00:12:02;;;;;;;4.6;4.17;;;8.6;84.2;;;;;;;;;
2021/04/27 00:12:09;;;;;;;4.6;4.17;;;8.6;84.2;;;;;;;;;
2021/04/27 00:12:14;;;;;;;4.6;4.17;;;8.6;84.2;;;;;;;;;
2021/04/27 00:12:29;;;;;;;6.2;4.87;;;8.6;83.5;;;;;;;;;
2021/04/27 00:12:39;;;;;;;6.2;4.87;;;8.6;83.5;;;;;;;;;
2021/04/27 00:12:55;;;;;;;6.2;4.87;;;8.6;83.5;;;;;;;;;
2021/04/27 00:13:02;;;;;;;6.2;4.87;;;8.6;83.5;;;;;;;;;
2021/04/27 00:13:05;;;;;;;6.2;4.87;;;8.6;83.5;;;;;;;;;
2021/04/27 00:13:15;;;;;;;6.2;4.87;;;8.6;83.5;;;;;;;;;
2021/04/27 00:13:31;;;;;;;9.73;5.13;;;8.5;83.5;;;;;;;;;
2021/04/27 00:13:41;;;;;;;9.73;5.13;;;8.5;83.5;;;;;;;;;
2021/04/27 00:13:51;;;;;;;9.73;5.13;;;8.5;83.5;;;;;;;;;
2021/04/27 00:14:02;;;;;;;9.73;5.13;;;8.5;83.5;;;;;;;;;
2021/04/27 00:14:07;;;;;;;9.73;5.13;;;8.5;83.5;;;;;;;;;
2021/04/27 00:14:17;;;;;;;5.33;4.63;;;8.5;83.5;;;;;;;;;
2021/04/27 00:14:27;;;;;;;5.33;4.63;;;8.5;83.5;;;;;;;;;
2021/04/27 00:14:42;;;;;;;5.33;4.63;;;8.5;83.5;;;;;;;;;
2021/04/27 00:14:52;;;;;;;5.33;4.63;;;8.5;83.5;;;;;;;;;
2021/04/27 00:15:01;;;;;;;5.33;4.63;;;8.5;83.5;;;;;;;;;
2021/04/27 00:15:08;;;;;;;5.33;4.63;;;8.5;83.5;;;;;;;;;
2021/04/27 00:15:13;;;;;;;5.33;4.63;;;8.5;83.5;;;;;;;;;
2021/04/27 00:15:28;;;;;;;6.2;4.8;;;8.5;83.7;;;;;;;;;
2021/04/27 00:15:44;;;;;;;6.2;4.8;;;8.5;83.7;;;;;;;;;
2021/04/27 00:15:54;;;;;;;6.2;4.8;;;8.5;83.7;;;;;;;;;
2021/04/27 00:16:02;;;;;;;6.2;4.8;;;8.5;83.7;;;;;;;;;
2021/04/27 00:16:04;;;;;;;6.2;4.8;;;8.5;83.7;;;;;;;;;
2021/04/27 00:16:15;;;;;;;6.2;4.8;;;8.5;83.7;;;;;;;;;
2021/04/27 00:16:30;;;;;;;5.13;4.1;;;8.5;83.8;;;;;;;;;
2021/04/27 00:16:40;;;;;;;5.13;4.1;;;8.5;83.8;;;;;;;;;
2021/04/27 00:16:55;;;;;;;5.13;4.1;;;8.5;83.8;;;;;;;;;
2021/04/27 00:17:02;;;;;;;5.13;4.1;;;8.5;83.8;;;;;;;;;
2021/04/27 00:17:06;;;;;;;5.13;4.1;;;8.5;83.8;;;;;;;;;
2021/04/27 00:17:16;;;;;;;5.13;4.1;;;8.5;83.8;;;;;;;;;
2021/04/27 00:17:26;;;;;;;5.43;4.6;;;8.4;83.9;;;;;;;;;
2021/04/27 00:17:42;;;;;;;5.43;4.6;;;8.4;83.9;;;;;;;;;
2021/04/27 00:17:57;;;;;;;5.43;4.6;;;8.4;83.9;;;;;;;;;
2021/04/27 00:18:02;;;;;;;5.43;4.6;;;8.4;83.9;;;;;;;;;
2021/04/27 00:18:07;;;;;;;5.43;4.6;;;8.4;83.9;;;;;;;;;
2021/04/27 00:18:12;;;;;;;5.43;4.6;;;8.4;83.9;;;;;;;;;
2021/04/27 00:18:27;;;;;;;6.23;5.1;;;8.4;84.2;;;;;;;;;
2021/04/27 00:18:43;;;;;;;6.23;5.1;;;8.4;84.2;;;;;;;;;
2021/04/27 00:18:53;;;;;;;6.23;5.1;;;8.4;84.2;;;;;;;;;
2021/04/27 00:19:02;;;;;;;6.23;5.1;;;8.4;84.2;;;;;;;;;
2021/04/27 00:19:10;;;;;;;6.23;5.1;;;8.4;84.2;;;;;;;;;
2021/04/27 00:19:14;;;;;;;6.23;5.1;;;8.4;84.2;;;;;;;;;
2021/04/27 00:19:29;;;;;;;7.6;4.2;;;8.4;84.3;;;;;;;;;
2021/04/27 00:19:39;;;;;;;7.6;4.2;;;8.4;84.3;;;;;;;;;
2021/04/27 00:19:55;;;;;;;7.6;4.2;;;8.4;84.3;;;;;;;;;
2021/04/27 00:20:01;;;;;;;7.6;4.2;;;8.4;84.3;;;;;;;;;
2021/04/27 00:20:10;;;;;;;7.6;4.2;;;8.4;84.3;;;;;;;;;
2021/04/27 00:20:15;;;;;;;7.6;4.2;;;8.4;84.3;;;;;;;;;
2021/04/27 00:20:26;;;;;;;5.33;4.57;;;8.4;84.1;;;;;;;;;
2021/04/27 00:20:41;;;;;;;5.33;4.57;;;8.4;84.1;;;;;;;;;
2021/04/27 00:20:56;;;;;;;5.33;4.57;;;8.4;84.1;;;;;;;;;
2021/04/27 00:21:02;;;;;;;5.33;4.57;;;8.4;84.1;;;;;;;;;
2021/04/27 00:21:06;;;;;;;5.33;4.57;;;8.4;84.1;;;;;;;;;
2021/04/27 00:21:16;;;;;;;5.33;4.57;;;8.4;84.1;;;;;;;;;
2021/04/27 00:21:27;;;;;;;6.17;4.67;;;8.4;84;;;;;;;;;
2021/04/27 00:21:42;;;;;;;6.17;4.67;;;8.4;84;;;;;;;;;
2021/04/27 00:21:52;;;;;;;6.17;4.67;;;8.4;84;;;;;;;;;
2021/04/27 00:22:02;;;;;;;6.17;4.67;;;8.4;84;;;;;;;;;
2021/04/27 00:22:08;;;;;;;6.17;4.67;;;8.4;84;;;;;;;;;
2021/04/27 00:22:13;;;;;;;6.17;4.67;;;8.4;84;;;;;;;;;
2021/04/27 00:22:28;;;;;;;5.47;4.33;;;8.4;84.2;;;;;;;;;
2021/04/27 00:22:38;;;;;;;5.47;4.33;;;8.4;84.2;;;;;;;;;
2021/04/27 00:22:54;;;;;;;5.47;4.33;;;8.4;84.2;;;;;;;;;
2021/04/27 00:23:02;;;;;;;5.47;4.33;;;8.4;84.2;;;;;;;;;
2021/04/27 00:23:09;;;;;;;5.47;4.33;;;8.4;84.2;;;;;;;;;
2021/04/27 00:23:14;;;;;;;5.47;4.33;;;8.4;84.2;;;;;;;;;
2021/04/27 00:23:30;;;;;;;5.63;4.5;;;8.4;84.3;;;;;;;;;
2021/04/27 00:23:40;;;;;;;5.63;4.5;;;8.4;84.3;;;;;;;;;
2021/04/27 00:23:55;;;;;;;5.63;4.5;;;8.4;84.3;;;;;;;;;
2021/04/27 00:24:02;;;;;;;5.63;4.5;;;8.4;84.3;;;;;;;;;
2021/04/27 00:24:05;;;;;;;5.63;4.5;;;8.4;84.3;;;;;;;;;
2021/04/27 00:24:16;;;;;;;5.63;4.5;;;8.4;84.3;;;;;;;;;
2021/04/27 00:24:30;;;;;;;5.37;4.5;;;8.4;84.3;;;;;;;;;
2021/04/27 00:24:41;;;;;;;5.37;4.5;;;8.4;84.3;;;;;;;;;
2021/04/27 00:24:51;;;;;;;5.37;4.5;;;8.4;84.3;;;;;;;;;
2021/04/27 00:25:02;;;;;;;5.37;4.5;;;8.4;84.3;;;;;;;;;
2021/04/27 00:25:07;;;;;;;5.37;4.5;;;8.4;84.3;;;;;;;;;
2021/04/27 00:25:12;;;;;;;5.37;4.5;;;8.4;84.3;;;;;;;;;
2021/04/27 00:25:27;;;;;;;5.43;4.43;;;8.4;84.7;;;;;;;;;
2021/04/27 00:25:43;;;;;;;5.43;4.43;;;8.4;84.7;;;;;;;;;
2021/04/27 00:25:53;;;;;;;5.43;4.43;;;8.4;84.7;;;;;;;;;
2021/04/27 00:26:02;;;;;;;5.43;4.43;;;8.4;84.7;;;;;;;;;
2021/04/27 00:26:08;;;;;;;5.43;4.43;;;8.4;84.7;;;;;;;;;
2021/04/27 00:26:13;;;;;;;5.43;4.43;;;8.4;84.7;;;;;;;;;
2021/04/27 00:26:29;;;;;;;6.13;4.3;;;8.4;84.5;;;;;;;;;
2021/04/27 00:26:44;;;;;;;6.13;4.3;;;8.4;84.5;;;;;;;;;
2021/04/27 00:26:54;;;;;;;6.13;4.3;;;8.4;84.5;;;;;;;;;
2021/04/27 00:27:02;;;;;;;6.13;4.3;;;8.4;84.5;;;;;;;;;
2021/04/27 00:27:05;;;;;;;6.13;4.3;;;8.4;84.5;;;;;;;;;
2021/04/27 00:27:15;;;;;;;6.13;4.3;;;8.4;84.5;;;;;;;;;
2021/04/27 00:27:25;;;;;;;6.07;4.33;;;8.4;83.9;;;;;;;;;
2021/04/27 00:27:42;;;;;;;6.07;4.33;;;8.4;83.9;;;;;;;;;
2021/04/27 00:27:56;;;;;;;6.07;4.33;;;8.4;83.9;;;;;;;;;
2021/04/27 00:28:02;;;;;;;6.07;4.33;;;8.4;83.9;;;;;;;;;
2021/04/27 00:28:06;;;;;;;6.07;4.33;;;8.4;83.9;;;;;;;;;
2021/04/27 00:28:16;;;;;;;6.07;4.33;;;8.4;83.9;;;;;;;;;
2021/04/27 00:28:27;;;;;;;5.33;4.4;;;8.4;84;;;;;;;;;
2021/04/27 00:28:42;;;;;;;5.33;4.4;;;8.4;84;;;;;;;;;
2021/04/27 00:28:57;;;;;;;5.33;4.4;;;8.4;84;;;;;;;;;
2021/04/27 00:29:02;;;;;;;5.33;4.4;;;8.4;84;;;;;;;;;
2021/04/27 00:29:07;;;;;;;5.33;4.4;;;8.4;84;;;;;;;;;
2021/04/27 00:29:13;;;;;;;5.33;4.4;;;8.4;84;;;;;;;;;
2021/04/27 00:29:28;;;;;;;6.2;5.2;;;8.4;84.2;;;;;;;;;
2021/04/27 00:29:38;;;;;;;6.2;5.2;;;8.4;84.2;;;;;;;;;
2021/04/27 00:29:54;;;;;;;6.2;5.2;;;8.4;84.2;;;;;;;;;
2021/04/27 00:30:01;;;;;;;6.2;5.2;;;8.4;84.2;;;;;;;;;
2021/04/27 00:30:09;;;;;;;6.2;5.2;;;8.4;84.2;;;;;;;;;
2021/04/27 00:30:14;;;;;;;6.2;5.2;;;8.4;84.2;;;;;;;;;
2021/04/27 00:30:29;;;;;;;4.77;4.3;;;8.4;84.3;;;;;;;;;
2021/04/27 00:30:40;;;;;;;4.77;4.3;;;8.4;84.3;;;;;;;;;
2021/04/27 00:30:55;;;;;;;4.77;4.3;;;8.4;84.3;;;;;;;;;
2021/04/27 00:31:02;;;;;;;4.77;4.3;;;8.4;84.3;;;;;;;;;
2021/04/27 00:31:10;;;;;;;4.77;4.3;;;8.4;84.3;;;;;;;;;
2021/04/27 00:31:15;;;;;;;4.77;4.3;;;8.4;84.3;;;;;;;;;
2021/04/27 00:31:27;;;;;;;6.27;4.8;;;8.3;84.4;;;;;;;;;
2021/04/27 00:31:41;;;;;;;6.27;4.8;;;8.3;84.4;;;;;;;;;
2021/04/27 00:31:51;;;;;;;6.27;4.8;;;8.3;84.4;;;;;;;;;
2021/04/27 00:32:03;;;;;;;6.27;4.8;;;8.3;84.4;;;;;;;;;
2021/04/27 00:32:07;;;;;;;6.27;4.8;;;8.3;84.4;;;;;;;;;
2021/04/27 00:32:17;;;;;;;6.27;4.8;;;8.3;84.4;;;;;;;;;
2021/04/27 00:32:27;;;;;;;6.4;5.1;;;8.4;84.7;;;;;;;;;
2021/04/27 00:32:43;;;;;;;6.4;5.1;;;8.4;84.7;;;;;;;;;
2021/04/27 00:32:53;;;;;;;6.4;5.1;;;8.4;84.7;;;;;;;;;
2021/04/27 00:33:02;;;;;;;6.4;5.1;;;8.4;84.7;;;;;;;;;
2021/04/27 00:33:08;;;;;;;6.4;5.1;;;8.4;84.7;;;;;;;;;
2021/04/27 00:33:13;;;;;;;6.4;5.1;;;8.4;84.7;;;;;;;;;
2021/04/27 00:33:29;;;;;;;5.6;4.83;;;8.4;84.7;;;;;;;;;
2021/04/27 00:33:39;;;;;;;5.6;4.83;;;8.4;84.7;;;;;;;;;
2021/04/27 00:33:54;;;;;;;5.6;4.83;;;8.4;84.7;;;;;;;;;
2021/04/27 00:34:02;;;;;;;5.6;4.83;;;8.4;84.7;;;;;;;;;
2021/04/27 00:34:04;;;;;;;5.6;4.83;;;8.4;84.7;;;;;;;;;
2021/04/27 00:34:15;;;;;;;5.6;4.83;;;8.4;84.7;;;;;;;;;
2021/04/27 00:34:30;;;;;;;5.93;5.23;;;8.4;84.8;;;;;;;;;
2021/04/27 00:34:40;;;;;;;5.93;5.23;;;8.4;84.8;;;;;;;;;
2021/04/27 00:34:56;;;;;;;5.93;5.23;;;8.4;84.8;;;;;;;;;
2021/04/27 00:35:01;;;;;;;5.93;5.23;;;8.4;84.8;;;;;;;;;
2021/04/27 00:35:06;;;;;;;5.93;5.23;;;8.4;84.8;;;;;;;;;
2021/04/27 00:35:16;;;;;;;5.93;5.23;;;8.4;84.8;;;;;;;;;
2021/04/27 00:35:30;;;;;;;6.87;5.17;;;8.4;85.1;;;;;;;;;
2021/04/27 00:35:42;;;;;;;6.87;5.17;;;8.4;85.1;;;;;;;;;
2021/04/27 00:35:52;;;;;;;6.87;5.17;;;8.4;85.1;;;;;;;;;
2021/04/27 00:36:02;;;;;;;6.87;5.17;;;8.4;85.1;;;;;;;;;
2021/04/27 00:36:07;;;;;;;6.87;5.17;;;8.4;85.1;;;;;;;;;
2021/04/27 00:36:12;;;;;;;6.87;5.17;;;8.4;85.1;;;;;;;;;
2021/04/27 00:36:28;;;;;;;6.5;5.53;;;8.3;85.1;;;;;;;;;
2021/04/27 00:36:43;;;;;;;6.5;5.53;;;8.3;85.1;;;;;;;;;
2021/04/27 00:36:53;;;;;;;6.5;5.53;;;8.3;85.1;;;;;;;;;
2021/04/27 00:37:02;;;;;;;6.5;5.53;;;8.3;85.1;;;;;;;;;
2021/04/27 00:37:09;;;;;;;6.5;5.53;;;8.3;85.1;;;;;;;;;
2021/04/27 00:37:14;;;;;;;6.5;5.53;;;8.3;85.1;;;;;;;;;
2021/04/27 00:37:29;;;;;;;5.13;4.53;;;8.3;85.4;;;;;;;;;
2021/04/27 00:37:45;;;;;;;5.13;4.53;;;8.3;85.4;;;;;;;;;
2021/04/27 00:37:55;;;;;;;5.13;4.53;;;8.3;85.4;;;;;;;;;
2021/04/27 00:38:02;;;;;;;5.13;4.53;;;8.3;85.4;;;;;;;;;
2021/04/27 00:38:05;;;;;;;5.13;4.53;;;8.3;85.4;;;;;;;;;
2021/04/27 00:38:15;;;;;;;5.13;4.53;;;8.3;85.4;;;;;;;;;
2021/04/27 00:38:26;;;;;;;6.13;5.1;;;8.3;85.4;;;;;;;;;
2021/04/27 00:38:41;;;;;;;6.13;5.1;;;8.3;85.4;;;;;;;;;
2021/04/27 00:38:56;;;;;;;6.13;5.1;;;8.3;85.4;;;;;;;;;
2021/04/27 00:39:02;;;;;;;6.13;5.1;;;8.3;85.4;;;;;;;;;
2021/04/27 00:39:07;;;;;;;6.13;5.1;;;8.3;85.4;;;;;;;;;
2021/04/27 00:39:17;;;;;;;6.13;5.1;;;8.3;85.4;;;;;;;;;
2021/04/27 00:39:27;;;;;;;7.43;5.47;;;8.2;85.6;;;;;;;;;
2021/04/27 00:39:42;;;;;;;7.43;5.47;;;8.2;85.6;;;;;;;;;
2021/04/27 00:39:58;;;;;;;7.43;5.47;;;8.2;85.6;;;;;;;;;
2021/04/27 00:40:01;;;;;;;7.43;5.47;;;8.2;85.6;;;;;;;;;
2021/04/27 00:40:08;;;;;;;7.43;5.47;;;8.2;85.6;;;;;;;;;
2021/04/27 00:40:13;;;;;;;7.43;5.47;;;8.2;85.6;;;;;;;;;
2021/04/27 00:40:31;;;;;;;7.8;4.93;;;8.1;86;;;;;;;;;
2021/04/27 00:40:39;;;;;;;7.8;4.93;;;8.1;86;;;;;;;;;
2021/04/27 00:40:54;;;;;;;7.8;4.93;;;8.1;86;;;;;;;;;
2021/04/27 00:41:02;;;;;;;7.8;4.93;;;8.1;86;;;;;;;;;
2021/04/27 00:41:09;;;;;;;7.8;4.93;;;8.1;86;;;;;;;;;
2021/04/27 00:41:14;;;;;;;7.8;4.93;;;8.1;86;;;;;;;;;
2021/04/27 00:41:30;;;;;;;5.93;4.6;;;8.1;86.3;;;;;;;;;
2021/04/27 00:41:40;;;;;;;5.93;4.6;;;8.1;86.3;;;;;;;;;
2021/04/27 00:41:55;;;;;;;5.93;4.6;;;8.1;86.3;;;;;;;;;
2021/04/27 00:42:02;;;;;;;5.93;4.6;;;8.1;86.3;;;;;;;;;
2021/04/27 00:42:11;;;;;;;5.93;4.6;;;8.1;86.3;;;;;;;;;
2021/04/27 00:42:16;;;;;;;5.93;4.6;;;8.1;86.3;;;;;;;;;
2021/04/27 00:42:26;;;;;;;5.07;4.4;;;8;86.7;;;;;;;;;
2021/04/27 00:42:42;;;;;;;5.07;4.4;;;8;86.7;;;;;;;;;
2021/04/27 00:42:52;;;;;;;5.07;4.4;;;8;86.7;;;;;;;;;
2021/04/27 00:43:02;;;;;;;5.07;4.4;;;8;86.7;;;;;;;;;
2021/04/27 00:43:07;;;;;;;5.07;4.4;;;8;86.7;;;;;;;;;
2021/04/27 00:43:12;;;;;;;5.07;4.4;;;8;86.7;;;;;;;;;
2021/04/27 00:43:28;;;;;;;8.07;4.6;;;7.9;86.9;;;;;;;;;
2021/04/27 00:43:43;;;;;;;8.07;4.6;;;7.9;86.9;;;;;;;;;
2021/04/27 00:43:53;;;;;;;8.07;4.6;;;7.9;86.9;;;;;;;;;
2021/04/27 00:44:02;;;;;;;8.07;4.6;;;7.9;86.9;;;;;;;;;
2021/04/27 00:44:09;;;;;;;8.07;4.6;;;7.9;86.9;;;;;;;;;
2021/04/27 00:44:14;;;;;;;8.07;4.6;;;7.9;86.9;;;;;;;;;
2021/04/27 00:44:29;;;;;;;9.67;5.53;;;7.8;87.4;;;;;;;;;
2021/04/27 00:44:39;;;;;;;9.67;5.53;;;7.8;87.4;;;;;;;;;
2021/04/27 00:44:55;;;;;;;9.67;5.53;;;7.8;87.4;;;;;;;;;
2021/04/27 00:45:02;;;;;;;9.67;5.53;;;7.8;87.4;;;;;;;;;
2021/04/27 00:45:05;;;;;;;9.67;5.53;;;7.8;87.4;;;;;;;;;
2021/04/27 00:45:15;;;;;;;9.67;5.53;;;7.8;87.4;;;;;;;;;
2021/04/27 00:45:25;;;;;;;5.1;4.5;;;7.8;87.4;;;;;;;;;
2021/04/27 00:45:41;;;;;;;5.1;4.5;;;7.8;87.4;;;;;;;;;
2021/04/27 00:45:56;;;;;;;5.1;4.5;;;7.8;87.4;;;;;;;;;
2021/04/27 00:46:02;;;;;;;5.1;4.5;;;7.8;87.4;;;;;;;;;
2021/04/27 00:46:06;;;;;;;5.1;4.5;;;7.8;87.4;;;;;;;;;
2021/04/27 00:46:17;;;;;;;5.1;4.5;;;7.8;87.4;;;;;;;;;
2021/04/27 00:46:27;;;;;;;5.37;4.8;;;7.8;87.5;;;;;;;;;
2021/04/27 00:46:42;;;;;;;5.37;4.8;;;7.8;87.5;;;;;;;;;
2021/04/27 00:46:52;;;;;;;5.37;4.8;;;7.8;87.5;;;;;;;;;
2021/04/27 00:47:01;;;;;;;5.37;4.8;;;7.8;87.5;;;;;;;;;
2021/04/27 00:47:08;;;;;;;5.37;4.8;;;7.8;87.5;;;;;;;;;
2021/04/27 00:47:13;;;;;;;5.37;4.8;;;7.8;87.5;;;;;;;;;
2021/04/27 00:47:28;;;;;;;5.9;4.23;;;7.8;87.5;;;;;;;;;
2021/04/27 00:47:39;;;;;;;5.9;4.23;;;7.8;87.5;;;;;;;;;
2021/04/27 00:47:54;;;;;;;5.9;4.23;;;7.8;87.5;;;;;;;;;
2021/04/27 00:48:02;;;;;;;5.9;4.23;;;7.8;87.5;;;;;;;;;
2021/04/27 00:48:09;;;;;;;5.9;4.23;;;7.8;87.5;;;;;;;;;
2021/04/27 00:48:14;;;;;;;5.9;4.23;;;7.8;87.5;;;;;;;;;
2021/04/27 00:48:30;;;;;;;6.47;4.9;;;7.8;87.6;;;;;;;;;
2021/04/27 00:48:40;;;;;;;6.47;4.9;;;7.8;87.6;;;;;;;;;
2021/04/27 00:48:55;;;;;;;6.47;4.9;;;7.8;87.6;;;;;;;;;
2021/04/27 00:49:02;;;;;;;6.47;4.9;;;7.8;87.6;;;;;;;;;
2021/04/27 00:49:06;;;;;;;6.47;4.9;;;7.8;87.6;;;;;;;;;
2021/04/27 00:49:16;;;;;;;6.47;4.9;;;7.8;87.6;;;;;;;;;
2021/04/27 00:49:26;;;;;;;6.13;4.67;;;7.8;87.5;;;;;;;;;
2021/04/27 00:49:41;;;;;;;6.13;4.67;;;7.8;87.5;;;;;;;;;
2021/04/27 00:49:52;;;;;;;6.13;4.67;;;7.8;87.5;;;;;;;;;
2021/04/27 00:50:02;;;;;;;6.13;4.67;;;7.8;87.5;;;;;;;;;
2021/04/27 00:50:07;;;;;;;6.13;4.67;;;7.8;87.5;;;;;;;;;
2021/04/27 00:50:17;;;;;;;6.13;4.67;;;7.8;87.5;;;;;;;;;
2021/04/27 00:50:28;;;;;;;5.93;4.1;;;7.9;87.2;;;;;;;;;
2021/04/27 00:50:43;;;;;;;5.93;4.1;;;7.9;87.2;;;;;;;;;
2021/04/27 00:50:53;;;;;;;5.93;4.1;;;7.9;87.2;;;;;;;;;
2021/04/27 00:51:02;;;;;;;5.93;4.1;;;7.9;87.2;;;;;;;;;
2021/04/27 00:51:08;;;;;;;5.93;4.1;;;7.9;87.2;;;;;;;;;
2021/04/27 00:51:14;;;;;;;5.93;4.1;;;7.9;87.2;;;;;;;;;
2021/04/27 00:51:29;;;;;;;5;3.97;;;8;86.6;;;;;;;;;
2021/04/27 00:51:39;;;;;;;5;3.97;;;8;86.6;;;;;;;;;
2021/04/27 00:51:54;;;;;;;5;3.97;;;8;86.6;;;;;;;;;
2021/04/27 00:52:01;;;;;;;5;3.97;;;8;86.6;;;;;;;;;
2021/04/27 00:52:05;;;;;;;5;3.97;;;8;86.6;;;;;;;;;
2021/04/27 00:52:15;;;;;;;5;3.97;;;8;86.6;;;;;;;;;
2021/04/27 00:52:30;;;;;;;7.53;4.63;;;8;86.6;;;;;;;;;
2021/04/27 00:52:41;;;;;;;7.53;4.63;;;8;86.6;;;;;;;;;
2021/04/27 00:52:56;;;;;;;7.53;4.63;;;8;86.6;;;;;;;;;
2021/04/27 00:53:02;;;;;;;7.53;4.63;;;8;86.6;;;;;;;;;
2021/04/27 00:53:06;;;;;;;7.53;4.63;;;8;86.6;;;;;;;;;
2021/04/27 00:53:17;;;;;;;7.53;4.63;;;8;86.6;;;;;;;;;
2021/04/27 00:53:27;;;;;;;7.53;4.63;;;8;86.6;;;;;;;;;
2021/04/27 00:53:42;;;;;;;5.73;4.1;;;8.1;86.1;;;;;;;;;
2021/04/27 00:53:52;;;;;;;5.73;4.1;;;8.1;86.1;;;;;;;;;
2021/04/27 00:54:04;;;;;;;5.73;4.1;;;8.1;86.1;;;;;;;;;
2021/04/27 00:54:08;;;;;;;5.73;4.1;;;8.1;86.1;;;;;;;;;
2021/04/27 00:54:13;;;;;;;5.73;4.1;;;8.1;86.1;;;;;;;;;
2021/04/27 00:54:28;;;;;;;5.1;4.17;;;8.1;85.9;;;;;;;;;
2021/04/27 00:54:44;;;;;;;5.1;4.17;;;8.1;85.9;;;;;;;;;
2021/04/27 00:54:54;;;;;;;5.1;4.17;;;8.1;85.9;;;;;;;;;
2021/04/27 00:55:01;;;;;;;5.1;4.17;;;8.1;85.9;;;;;;;;;
2021/04/27 00:55:10;;;;;;;5.1;4.17;;;8.1;85.9;;;;;;;;;
2021/04/27 00:55:14;;;;;;;5.1;4.17;;;8.1;85.9;;;;;;;;;
2021/04/27 00:55:30;;;;;;;5.97;4.23;;;8.1;85.5;;;;;;;;;
2021/04/27 00:55:40;;;;;;;5.97;4.23;;;8.1;85.5;;;;;;;;;
2021/04/27 00:55:55;;;;;;;5.97;4.23;;;8.1;85.5;;;;;;;;;
2021/04/27 00:56:02;;;;;;;5.97;4.23;;;8.1;85.5;;;;;;;;;
2021/04/27 00:56:05;;;;;;;5.97;4.23;;;8.1;85.5;;;;;;;;;
2021/04/27 00:56:16;;;;;;;5.97;4.23;;;8.1;85.5;;;;;;;;;
2021/04/27 00:56:26;;;;;;;5.97;4.23;;;8.1;85.5;;;;;;;;;
2021/04/27 00:56:41;;;;;;;8.4;4.47;;;8.1;85.4;;;;;;;;;
2021/04/27 00:56:57;;;;;;;8.4;4.47;;;8.1;85.4;;;;;;;;;
2021/04/27 00:57:01;;;;;;;8.4;4.47;;;8.1;85.4;;;;;;;;;
2021/04/27 00:57:07;;;;;;;8.4;4.47;;;8.1;85.4;;;;;;;;;
2021/04/27 00:57:12;;;;;;;8.4;4.47;;;8.1;85.4;;;;;;;;;
2021/04/27 00:57:27;;;;;;;8.4;4.47;;;8.1;85.4;;;;;;;;;
2021/04/27 00:57:43;;;;;;;7.93;4.9;;;8.2;85.5;;;;;;;;;
2021/04/27 00:57:53;;;;;;;7.93;4.9;;;8.2;85.5;;;;;;;;;
2021/04/27 00:58:02;;;;;;;7.93;4.9;;;8.2;85.5;;;;;;;;;
2021/04/27 00:58:08;;;;;;;7.93;4.9;;;8.2;85.5;;;;;;;;;
2021/04/27 00:58:13;;;;;;;7.93;4.9;;;8.2;85.5;;;;;;;;;
2021/04/27 00:58:31;;;;;;;7.07;4.87;;;8.1;86.4;;;;;;;;;
2021/04/27 00:58:39;;;;;;;7.07;4.87;;;8.1;86.4;;;;;;;;;
2021/04/27 00:58:54;;;;;;;7.07;4.87;;;8.1;86.4;;;;;;;;;
2021/04/27 00:59:02;;;;;;;7.07;4.87;;;8.1;86.4;;;;;;;;;
2021/04/27 00:59:10;;;;;;;7.07;4.87;;;8.1;86.4;;;;;;;;;
2021/04/27 00:59:15;;;;;;;7.07;4.87;;;8.1;86.4;;;;;;;;;
2021/04/27 00:59:25;;;;;;;7.07;4.87;;;8.1;86.4;;;;;;;;;
2021/04/27 00:59:41;;;;;;;8.23;5.27;;;8.1;85.9;;;;;;;;;
2021/04/27 00:59:57;;;;;;;8.23;5.27;;;8.1;85.9;;;;;;;;;
2021/04/27 01:00:02;;;;;;;8.23;5.27;;;8.1;85.9;;;;;;;;;
2021/04/27 01:00:06;;;;;;;8.23;5.27;;;8.1;85.9;;;;;;;;;
2021/04/27 01:00:16;;;;;;;8.23;5.27;;;8.1;85.9;;;;;;;;;
2021/04/27 01:00:27;;;;;;;8.23;5.27;;;8.1;85.9;;;;;;;;;
2021/04/27 01:00:42;;;;;;;5.8;4.07;;;7.9;86.2;;;;;;;;;
2021/04/27 01:00:52;;;;;;;5.8;4.07;;;7.9;86.2;;;;;;;;;
2021/04/27 01:01:02;;;;;;;5.8;4.07;;;7.9;86.2;;;;;;;;;
2021/04/27 01:01:11;;;;;;;5.8;4.07;;;7.9;86.2;;;;;;;;;
2021/04/27 01:01:13;;;;;;;5.8;4.07;;;7.9;86.2;;;;;;;;;
2021/04/27 01:01:28;;;;;;;5.8;4.07;;;7.9;86.2;;;;;;;;;
2021/04/27 01:01:38;;;;;;;5.43;4.2;;;7.8;86.8;;;;;;;;;
2021/04/27 01:01:54;;;;;;;5.43;4.2;;;7.8;86.8;;;;;;;;;
2021/04/27 01:02:02;;;;;;;5.43;4.2;;;7.8;86.8;;;;;;;;;
2021/04/27 01:02:09;;;;;;;5.43;4.2;;;7.8;86.8;;;;;;;;;
2021/04/27 01:02:14;;;;;;;5.43;4.2;;;7.8;86.8;;;;;;;;;
2021/04/27 01:02:30;;;;;;;5.43;4.2;;;7.8;86.8;;;;;;;;;
2021/04/27 01:02:40;;;;;;;6.3;4.23;;;7.7;87.1;;;;;;;;;
2021/04/27 01:02:55;;;;;;;6.3;4.23;;;7.7;87.1;;;;;;;;;
2021/04/27 01:03:02;;;;;;;6.3;4.23;;;7.7;87.1;;;;;;;;;
2021/04/27 01:03:05;;;;;;;6.3;4.23;;;7.7;87.1;;;;;;;;;
2021/04/27 01:03:15;;;;;;;6.3;4.23;;;7.7;87.1;;;;;;;;;
2021/04/27 01:03:26;;;;;;;6.3;4.23;;;7.7;87.1;;;;;;;;;
2021/04/27 01:03:41;;;;;;;5;4;;;7.6;87.6;;;;;;;;;
2021/04/27 01:03:51;;;;;;;5;4;;;7.6;87.6;;;;;;;;;
2021/04/27 01:04:02;;;;;;;5;4;;;7.6;87.6;;;;;;;;;
2021/04/27 01:04:07;;;;;;;5;4;;;7.6;87.6;;;;;;;;;
2021/04/27 01:04:17;;;;;;;5;4;;;7.6;87.6;;;;;;;;;
2021/04/27 01:04:27;;;;;;;5;4;;;7.6;87.6;;;;;;;;;
2021/04/27 01:04:43;;;;;;;6.5;4.57;;;7.5;87.8;;;;;;;;;
2021/04/27 01:04:53;;;;;;;6.5;4.57;;;7.5;87.8;;;;;;;;;
2021/04/27 01:05:02;;;;;;;6.5;4.57;;;7.5;87.8;;;;;;;;;
2021/04/27 01:05:08;;;;;;;6.5;4.57;;;7.5;87.8;;;;;;;;;
2021/04/27 01:05:13;;;;;;;6.5;4.57;;;7.5;87.8;;;;;;;;;
2021/04/27 01:05:29;;;;;;;6.5;4.57;;;7.5;87.8;;;;;;;;;
2021/04/27 01:05:39;;;;;;;4.13;3.7;;;7.6;87.6;;;;;;;;;
2021/04/27 01:05:54;;;;;;;4.13;3.7;;;7.6;87.6;;;;;;;;;
2021/04/27 01:06:02;;;;;;;4.13;3.7;;;7.6;87.6;;;;;;;;;
2021/04/27 01:06:04;;;;;;;4.13;3.7;;;7.6;87.6;;;;;;;;;
2021/04/27 01:06:17;;;;;;;4.13;3.7;;;7.6;87.6;;;;;;;;;
2021/04/27 01:06:30;;;;;;;4.13;3.7;;;7.6;87.6;;;;;;;;;
2021/04/27 01:06:40;;;;;;;5.4;4.6;;;7.5;87.5;;;;;;;;;
2021/04/27 01:06:56;;;;;;;5.4;4.6;;;7.5;87.5;;;;;;;;;
2021/04/27 01:07:01;;;;;;;5.4;4.6;;;7.5;87.5;;;;;;;;;
2021/04/27 01:07:06;;;;;;;5.4;4.6;;;7.5;87.5;;;;;;;;;
2021/04/27 01:07:16;;;;;;;5.4;4.6;;;7.5;87.5;;;;;;;;;
2021/04/27 01:07:26;;;;;;;5.4;4.6;;;7.5;87.5;;;;;;;;;
2021/04/27 01:07:42;;;;;;;7.13;4.67;;;7.5;87.6;;;;;;;;;
2021/04/27 01:07:52;;;;;;;7.13;4.67;;;7.5;87.6;;;;;;;;;
2021/04/27 01:08:02;;;;;;;7.13;4.67;;;7.5;87.6;;;;;;;;;
2021/04/27 01:08:07;;;;;;;7.13;4.67;;;7.5;87.6;;;;;;;;;
2021/04/27 01:08:13;;;;;;;7.13;4.67;;;7.5;87.6;;;;;;;;;
2021/04/27 01:08:28;;;;;;;7.13;4.67;;;7.5;87.6;;;;;;;;;
2021/04/27 01:08:43;;;;;;;6.07;4.43;;;7.5;87.4;;;;;;;;;
2021/04/27 01:08:53;;;;;;;6.07;4.43;;;7.5;87.4;;;;;;;;;
2021/04/27 01:09:02;;;;;;;6.07;4.43;;;7.5;87.4;;;;;;;;;
2021/04/27 01:09:09;;;;;;;6.07;4.43;;;7.5;87.4;;;;;;;;;
2021/04/27 01:09:14;;;;;;;6.07;4.43;;;7.5;87.4;;;;;;;;;
2021/04/27 01:09:29;;;;;;;6.07;4.43;;;7.5;87.4;;;;;;;;;
2021/04/27 01:09:40;;;;;;;5.5;4.67;;;7.6;87.4;;;;;;;;;
2021/04/27 01:10:00;;;;;;;5.5;4.67;;;7.6;87.4;;;;;;;;;
2021/04/27 01:10:02;;;;;;;5.5;4.67;;;7.6;87.4;;;;;;;;;
2021/04/27 01:10:10;;;;;;;5.5;4.67;;;7.6;87.4;;;;;;;;;
2021/04/27 01:10:21;;;;;;;5.5;4.67;;;7.6;87.4;;;;;;;;;
2021/04/27 01:10:31;;;;;;;5.5;4.67;;;7.6;87.4;;;;;;;;;
2021/04/27 01:10:41;;;;;;;4.73;3.8;;;7.6;87;;;;;;;;;
2021/04/27 01:10:56;;;;;;;4.73;3.8;;;7.6;87;;;;;;;;;
2021/04/27 01:11:02;;;;;;;4.73;3.8;;;7.6;87;;;;;;;;;
2021/04/27 01:11:07;;;;;;;4.73;3.8;;;7.6;87;;;;;;;;;
2021/04/27 01:11:17;;;;;;;4.73;3.8;;;7.6;87;;;;;;;;;
2021/04/27 01:11:27;;;;;;;4.73;3.8;;;7.6;87;;;;;;;;;
2021/04/27 01:11:42;;;;;;;4.57;4.13;;;7.6;87.2;;;;;;;;;
2021/04/27 01:11:53;;;;;;;4.57;4.13;;;7.6;87.2;;;;;;;;;
2021/04/27 01:12:02;;;;;;;4.57;4.13;;;7.6;87.2;;;;;;;;;
2021/04/27 01:12:18;;;;;;;4.57;4.13;;;7.6;87.2;;;;;;;;;
2021/04/27 01:12:18;;;;;;;4.57;4.13;;;7.6;87.2;;;;;;;;;
2021/04/27 01:12:34;;;;;;;4.77;4.3;;;7.6;86.9;;;;;;;;;
2021/04/27 01:12:49;;;;;;;4.77;4.3;;;7.6;86.9;;;;;;;;;
2021/04/27 01:12:59;;;;;;;4.77;4.3;;;7.6;86.9;;;;;;;;;
2021/04/27 01:13:02;;;;;;;4.77;4.3;;;7.6;86.9;;;;;;;;;
2021/04/27 01:13:15;;;;;;;4.77;4.3;;;7.6;86.9;;;;;;;;;
2021/04/27 01:13:20;;;;;;;4.77;4.3;;;7.6;86.9;;;;;;;;;
2021/04/27 01:13:35;;;;;;;6.03;4.8;;;7.6;87.5;;;;;;;;;
2021/04/27 01:13:45;;;;;;;6.03;4.8;;;7.6;87.5;;;;;;;;;
2021/04/27 01:13:56;;;;;;;6.03;4.8;;;7.6;87.5;;;;;;;;;
2021/04/27 01:14:03;;;;;;;6.03;4.8;;;7.6;87.5;;;;;;;;;
2021/04/27 01:14:06;;;;;;;6.03;4.8;;;7.6;87.5;;;;;;;;;
2021/04/27 01:14:16;;;;;;;6.03;4.8;;;7.6;87.5;;;;;;;;;
2021/04/27 01:14:37;;;;;;;4.8;4.27;;;7.6;87;;;;;;;;;
2021/04/27 01:14:49;;;;;;;4.8;4.27;;;7.6;87;;;;;;;;;
2021/04/27 01:15:02;;;;;;;4.8;4.27;;;7.6;87;;;;;;;;;
2021/04/27 01:15:07;;;;;;;4.8;4.27;;;7.6;87;;;;;;;;;
2021/04/27 01:15:18;;;;;;;4.8;4.27;;;7.6;87;;;;;;;;;
2021/04/27 01:15:18;;;;;;;4.8;4.27;;;7.6;87;;;;;;;;;
2021/04/27 01:15:33;;;;;;;4.8;4.27;;;7.6;87;;;;;;;;;
2021/04/27 01:15:48;;;;;;;5.53;4.1;;;7.7;86.9;;;;;;;;;
2021/04/27 01:16:02;;;;;;;5.53;4.1;;;7.7;86.9;;;;;;;;;
2021/04/27 01:16:03;;;;;;;5.53;4.1;;;7.7;86.9;;;;;;;;;
2021/04/27 01:16:14;;;;;;;5.53;4.1;;;7.7;86.9;;;;;;;;;
2021/04/27 01:16:19;;;;;;;5.53;4.1;;;7.7;86.9;;;;;;;;;
2021/04/27 01:16:34;;;;;;;5.87;4.47;;;7.6;87.6;;;;;;;;;
2021/04/27 01:16:50;;;;;;;5.87;4.47;;;7.6;87.6;;;;;;;;;
2021/04/27 01:17:01;;;;;;;5.87;4.47;;;7.6;87.6;;;;;;;;;
2021/04/27 01:17:10;;;;;;;5.87;4.47;;;7.6;87.6;;;;;;;;;
2021/04/27 01:17:15;;;;;;;5.87;4.47;;;7.6;87.6;;;;;;;;;
2021/04/27 01:17:20;;;;;;;5.87;4.47;;;7.6;87.6;;;;;;;;;